sensor_id;sensor_type;location;lat;lon;timestamp;P1;durP1;ratioP1;P2;durP2;ratioP2
4472;SDS011;2249;42.626;23.320;2024-01-25T00:00:07;15.83;;;11.10;;
4472;SDS011;2249;42.626;23.320;2024-01-25T00:02:34;23.63;;;12.07;;
4472;SDS011;2249;42.626;23.320;2024-01-25T00:05:00;22.00;;;11.50;;
4472;SDS011;2249;42.626;23.320;2024-01-25T00:07:27;19.83;;;12.40;;
4472;SDS011;2249;42.626;23.320;2024-01-25T00:09:55;22.10;;;13.60;;
4472;SDS011;2249;42.626;23.320;2024-01-25T00:12:23;42.17;;;16.07;;
4472;SDS011;2249;42.626;23.320;2024-01-25T00:14:49;28.83;;;14.80;;
4472;SDS011;2249;42.626;23.320;2024-01-25T00:17:17;28.90;;;16.00;;
4472;SDS011;2249;42.626;23.320;2024-01-25T00:19:43;15.50;;;9.73;;
4472;SDS011;2249;42.626;23.320;2024-01-25T00:22:10;30.87;;;19.77;;
4472;SDS011;2249;42.626;23.320;2024-01-25T00:24:36;14.53;;;9.40;;
4472;SDS011;2249;42.626;23.320;2024-01-25T00:27:04;11.93;;;7.53;;
4472;SDS011;2249;42.626;23.320;2024-01-25T00:29:31;9.53;;;7.10;;
4472;SDS011;2249;42.626;23.320;2024-01-25T00:31:57;11.27;;;6.87;;
4472;SDS011;2249;42.626;23.320;2024-01-25T00:34:24;18.13;;;10.80;;
4472;SDS011;2249;42.626;23.320;2024-01-25T00:36:51;18.87;;;8.90;;
4472;SDS011;2249;42.626;23.320;2024-01-25T00:39:18;25.77;;;12.80;;
4472;SDS011;2249;42.626;23.320;2024-01-25T00:41:45;20.17;;;10.77;;
4472;SDS011;2249;42.626;23.320;2024-01-25T00:44:16;16.00;;;8.43;;
4472;SDS011;2249;42.626;23.320;2024-01-25T00:46:43;13.43;;;8.30;;
4472;SDS011;2249;42.626;23.320;2024-01-25T00:49:12;15.37;;;9.20;;
4472;SDS011;2249;42.626;23.320;2024-01-25T00:51:38;14.97;;;9.10;;
4472;SDS011;2249;42.626;23.320;2024-01-25T00:54:08;16.70;;;9.20;;
4472;SDS011;2249;42.626;23.320;2024-01-25T00:56:35;33.03;;;14.47;;
4472;SDS011;2249;42.626;23.320;2024-01-25T00:59:01;27.80;;;15.30;;
4472;SDS011;2249;42.626;23.320;2024-01-25T01:01:30;19.77;;;11.67;;
4472;SDS011;2249;42.626;23.320;2024-01-25T01:03:56;26.30;;;13.37;;
4472;SDS011;2249;42.626;23.320;2024-01-25T01:06:24;14.47;;;8.50;;
4472;SDS011;2249;42.626;23.320;2024-01-25T01:08:51;12.40;;;8.10;;
4472;SDS011;2249;42.626;23.320;2024-01-25T01:11:18;17.17;;;10.30;;
4472;SDS011;2249;42.626;23.320;2024-01-25T01:13:45;18.90;;;11.60;;
4472;SDS011;2249;42.626;23.320;2024-01-25T01:16:11;23.17;;;12.70;;
4472;SDS011;2249;42.626;23.320;2024-01-25T01:18:39;17.57;;;11.70;;
4472;SDS011;2249;42.626;23.320;2024-01-25T01:21:06;19.87;;;12.17;;
4472;SDS011;2249;42.626;23.320;2024-01-25T01:23:32;18.70;;;12.80;;
4472;SDS011;2249;42.626;23.320;2024-01-25T01:25:59;20.00;;;12.70;;
4472;SDS011;2249;42.626;23.320;2024-01-25T01:28:25;24.10;;;13.63;;
4472;SDS011;2249;42.626;23.320;2024-01-25T01:30:52;20.30;;;11.67;;
4472;SDS011;2249;42.626;23.320;2024-01-25T01:33:18;22.60;;;11.50;;
4472;SDS011;2249;42.626;23.320;2024-01-25T01:35:46;14.63;;;8.53;;
4472;SDS011;2249;42.626;23.320;2024-01-25T01:38:12;16.93;;;8.87;;
4472;SDS011;2249;42.626;23.320;2024-01-25T01:40:39;9.80;;;6.20;;
4472;SDS011;2249;42.626;23.320;2024-01-25T01:43:05;4.33;;;2.83;;
4472;SDS011;2249;42.626;23.320;2024-01-25T01:45:32;4.00;;;2.90;;
4472;SDS011;2249;42.626;23.320;2024-01-25T01:47:58;1.60;;;1.50;;
4472;SDS011;2249;42.626;23.320;2024-01-25T01:50:25;1.90;;;1.70;;
4472;SDS011;2249;42.626;23.320;2024-01-25T01:52:53;0.90;;;0.83;;
4472;SDS011;2249;42.626;23.320;2024-01-25T01:55:20;1.93;;;1.67;;
4472;SDS011;2249;42.626;23.320;2024-01-25T01:57:48;4.03;;;1.97;;
4472;SDS011;2249;42.626;23.320;2024-01-25T02:00:14;3.13;;;2.47;;
4472;SDS011;2249;42.626;23.320;2024-01-25T02:02:41;1.33;;;1.00;;
4472;SDS011;2249;42.626;23.320;2024-01-25T02:05:08;1.67;;;1.30;;
4472;SDS011;2249;42.626;23.320;2024-01-25T02:07:35;1.13;;;1.03;;
4472;SDS011;2249;42.626;23.320;2024-01-25T02:10:05;1.73;;;1.63;;
4472;SDS011;2249;42.626;23.320;2024-01-25T02:12:31;1.57;;;0.90;;
4472;SDS011;2249;42.626;23.320;2024-01-25T02:14:58;1.43;;;1.33;;
4472;SDS011;2249;42.626;23.320;2024-01-25T02:17:24;1.67;;;1.43;;
4472;SDS011;2249;42.626;23.320;2024-01-25T02:19:51;2.13;;;0.90;;
4472;SDS011;2249;42.626;23.320;2024-01-25T02:22:19;3.10;;;0.90;;
4472;SDS011;2249;42.626;23.320;2024-01-25T02:24:45;1.67;;;0.90;;
4472;SDS011;2249;42.626;23.320;2024-01-25T02:27:12;1.20;;;1.10;;
4472;SDS011;2249;42.626;23.320;2024-01-25T02:29:38;1.23;;;1.13;;
4472;SDS011;2249;42.626;23.320;2024-01-25T02:32:05;0.80;;;0.80;;
4472;SDS011;2249;42.626;23.320;2024-01-25T02:34:32;0.70;;;0.60;;
4472;SDS011;2249;42.626;23.320;2024-01-25T02:36:58;1.13;;;1.00;;
4472;SDS011;2249;42.626;23.320;2024-01-25T02:39:26;2.53;;;1.30;;
4472;SDS011;2249;42.626;23.320;2024-01-25T02:41:52;0.80;;;0.60;;
4472;SDS011;2249;42.626;23.320;2024-01-25T02:44:19;0.63;;;0.63;;
4472;SDS011;2249;42.626;23.320;2024-01-25T02:46:45;1.10;;;1.00;;
4472;SDS011;2249;42.626;23.320;2024-01-25T02:49:12;1.30;;;1.20;;
4472;SDS011;2249;42.626;23.320;2024-01-25T02:51:38;0.90;;;0.80;;
4472;SDS011;2249;42.626;23.320;2024-01-25T02:54:05;0.80;;;0.80;;
4472;SDS011;2249;42.626;23.320;2024-01-25T02:56:32;1.90;;;1.70;;
4472;SDS011;2249;42.626;23.320;2024-01-25T02:59:00;1.10;;;0.90;;
4472;SDS011;2249;42.626;23.320;2024-01-25T03:01:27;1.30;;;1.10;;
4472;SDS011;2249;42.626;23.320;2024-01-25T03:03:53;0.73;;;0.73;;
4472;SDS011;2249;42.626;23.320;2024-01-25T03:06:20;1.27;;;0.70;;
4472;SDS011;2249;42.626;23.320;2024-01-25T03:08:46;1.47;;;1.00;;
4472;SDS011;2249;42.626;23.320;2024-01-25T03:11:13;1.63;;;0.97;;
4472;SDS011;2249;42.626;23.320;2024-01-25T03:13:41;0.93;;;0.70;;
4472;SDS011;2249;42.626;23.320;2024-01-25T03:16:07;1.10;;;0.93;;
4472;SDS011;2249;42.626;23.320;2024-01-25T03:18:34;1.97;;;0.80;;
4472;SDS011;2249;42.626;23.320;2024-01-25T03:21:00;3.10;;;2.03;;
4472;SDS011;2249;42.626;23.320;2024-01-25T03:23:27;1.50;;;0.83;;
4472;SDS011;2249;42.626;23.320;2024-01-25T03:25:53;0.97;;;0.90;;
4472;SDS011;2249;42.626;23.320;2024-01-25T03:28:20;1.70;;;1.10;;
4472;SDS011;2249;42.626;23.320;2024-01-25T03:30:47;2.03;;;1.23;;
4472;SDS011;2249;42.626;23.320;2024-01-25T03:33:14;3.07;;;2.07;;
4472;SDS011;2249;42.626;23.320;2024-01-25T03:35:40;1.10;;;1.00;;
4472;SDS011;2249;42.626;23.320;2024-01-25T03:38:07;1.00;;;0.90;;
4472;SDS011;2249;42.626;23.320;2024-01-25T03:40:33;1.87;;;1.10;;
4472;SDS011;2249;42.626;23.320;2024-01-25T03:43:00;0.80;;;0.80;;
4472;SDS011;2249;42.626;23.320;2024-01-25T03:45:26;1.30;;;0.90;;
4472;SDS011;2249;42.626;23.320;2024-01-25T03:47:56;1.27;;;0.80;;
4472;SDS011;2249;42.626;23.320;2024-01-25T03:50:22;1.17;;;0.80;;
4472;SDS011;2249;42.626;23.320;2024-01-25T03:52:49;1.57;;;0.90;;
4472;SDS011;2249;42.626;23.320;2024-01-25T03:55:15;1.90;;;1.20;;
4472;SDS011;2249;42.626;23.320;2024-01-25T03:57:42;0.73;;;0.73;;
4472;SDS011;2249;42.626;23.320;2024-01-25T04:00:09;2.13;;;1.03;;
4472;SDS011;2249;42.626;23.320;2024-01-25T04:02:36;2.70;;;1.10;;
4472;SDS011;2249;42.626;23.320;2024-01-25T04:05:04;1.13;;;0.80;;
4472;SDS011;2249;42.626;23.320;2024-01-25T04:07:30;1.63;;;1.10;;
4472;SDS011;2249;42.626;23.320;2024-01-25T04:09:57;1.00;;;0.90;;
4472;SDS011;2249;42.626;23.320;2024-01-25T04:12:23;1.57;;;0.83;;
4472;SDS011;2249;42.626;23.320;2024-01-25T04:14:50;1.10;;;1.00;;
4472;SDS011;2249;42.626;23.320;2024-01-25T04:17:16;1.47;;;1.00;;
4472;SDS011;2249;42.626;23.320;2024-01-25T04:19:43;1.33;;;1.20;;
4472;SDS011;2249;42.626;23.320;2024-01-25T04:22:11;2.03;;;1.00;;
4472;SDS011;2249;42.626;23.320;2024-01-25T04:24:37;2.03;;;1.20;;
4472;SDS011;2249;42.626;23.320;2024-01-25T04:27:04;2.10;;;1.00;;
4472;SDS011;2249;42.626;23.320;2024-01-25T04:29:30;4.93;;;2.07;;
4472;SDS011;2249;42.626;23.320;2024-01-25T04:31:57;2.80;;;1.20;;
4472;SDS011;2249;42.626;23.320;2024-01-25T04:34:23;1.20;;;1.10;;
4472;SDS011;2249;42.626;23.320;2024-01-25T04:36:50;0.97;;;0.90;;
4472;SDS011;2249;42.626;23.320;2024-01-25T04:39:18;1.80;;;1.47;;
4472;SDS011;2249;42.626;23.320;2024-01-25T04:41:44;2.77;;;1.57;;
4472;SDS011;2249;42.626;23.320;2024-01-25T04:44:11;6.37;;;1.63;;
4472;SDS011;2249;42.626;23.320;2024-01-25T04:46:37;1.77;;;1.20;;
4472;SDS011;2249;42.626;23.320;2024-01-25T04:49:03;3.83;;;2.00;;
4472;SDS011;2249;42.626;23.320;2024-01-25T04:51:30;2.30;;;1.50;;
4472;SDS011;2249;42.626;23.320;2024-01-25T04:53:56;4.23;;;2.13;;
4472;SDS011;2249;42.626;23.320;2024-01-25T04:56:24;4.30;;;1.77;;
4472;SDS011;2249;42.626;23.320;2024-01-25T04:58:51;2.17;;;1.80;;
4472;SDS011;2249;42.626;23.320;2024-01-25T05:01:17;1.90;;;1.63;;
4472;SDS011;2249;42.626;23.320;2024-01-25T05:03:44;5.70;;;1.30;;
4472;SDS011;2249;42.626;23.320;2024-01-25T05:06:09;3.53;;;1.97;;
4472;SDS011;2249;42.626;23.320;2024-01-25T05:08:36;1.50;;;1.30;;
4472;SDS011;2249;42.626;23.320;2024-01-25T05:11:02;3.20;;;1.70;;
4472;SDS011;2249;42.626;23.320;2024-01-25T05:13:30;3.00;;;1.77;;
4472;SDS011;2249;42.626;23.320;2024-01-25T05:15:57;6.60;;;2.00;;
4472;SDS011;2249;42.626;23.320;2024-01-25T05:18:23;3.07;;;1.43;;
4472;SDS011;2249;42.626;23.320;2024-01-25T05:20:50;2.60;;;1.50;;
4472;SDS011;2249;42.626;23.320;2024-01-25T05:23:16;4.50;;;1.80;;
4472;SDS011;2249;42.626;23.320;2024-01-25T05:25:43;1.57;;;1.20;;
4472;SDS011;2249;42.626;23.320;2024-01-25T05:28:09;3.17;;;1.70;;
4472;SDS011;2249;42.626;23.320;2024-01-25T05:30:37;5.30;;;2.10;;
4472;SDS011;2249;42.626;23.320;2024-01-25T05:33:04;4.40;;;1.60;;
4472;SDS011;2249;42.626;23.320;2024-01-25T05:35:30;1.80;;;1.40;;
4472;SDS011;2249;42.626;23.320;2024-01-25T05:37:58;3.90;;;1.40;;
4472;SDS011;2249;42.626;23.320;2024-01-25T05:40:25;3.80;;;1.90;;
4472;SDS011;2249;42.626;23.320;2024-01-25T05:42:51;3.90;;;1.50;;
4472;SDS011;2249;42.626;23.320;2024-01-25T05:45:18;2.53;;;1.60;;
4472;SDS011;2249;42.626;23.320;2024-01-25T05:47:46;2.83;;;1.50;;
4472;SDS011;2249;42.626;23.320;2024-01-25T05:50:13;4.37;;;2.10;;
4472;SDS011;2249;42.626;23.320;2024-01-25T05:52:40;11.43;;;1.77;;
4472;SDS011;2249;42.626;23.320;2024-01-25T05:55:06;5.10;;;1.97;;
4472;SDS011;2249;42.626;23.320;2024-01-25T05:57:34;4.90;;;2.20;;
4472;SDS011;2249;42.626;23.320;2024-01-25T06:00:01;5.43;;;1.57;;
4472;SDS011;2249;42.626;23.320;2024-01-25T06:02:28;6.87;;;3.57;;
4472;SDS011;2249;42.626;23.320;2024-01-25T06:04:55;4.60;;;1.80;;
4472;SDS011;2249;42.626;23.320;2024-01-25T06:07:23;3.10;;;1.80;;
4472;SDS011;2249;42.626;23.320;2024-01-25T06:09:50;5.37;;;2.40;;
4472;SDS011;2249;42.626;23.320;2024-01-25T06:12:16;3.23;;;2.20;;
4472;SDS011;2249;42.626;23.320;2024-01-25T06:14:43;5.00;;;2.10;;
4472;SDS011;2249;42.626;23.320;2024-01-25T06:17:09;3.07;;;1.70;;
4472;SDS011;2249;42.626;23.320;2024-01-25T06:19:36;3.43;;;1.90;;
4472;SDS011;2249;42.626;23.320;2024-01-25T06:22:04;6.53;;;2.60;;
4472;SDS011;2249;42.626;23.320;2024-01-25T06:24:30;4.97;;;2.83;;
4472;SDS011;2249;42.626;23.320;2024-01-25T06:26:56;4.03;;;1.80;;
4472;SDS011;2249;42.626;23.320;2024-01-25T06:29:23;7.57;;;2.43;;
4472;SDS011;2249;42.626;23.320;2024-01-25T06:31:49;7.33;;;2.43;;
4472;SDS011;2249;42.626;23.320;2024-01-25T06:34:16;17.53;;;6.50;;
4472;SDS011;2249;42.626;23.320;2024-01-25T06:36:42;7.60;;;2.83;;
4472;SDS011;2249;42.626;23.320;2024-01-25T06:39:10;4.67;;;2.63;;
4472;SDS011;2249;42.626;23.320;2024-01-25T06:41:37;10.27;;;2.93;;
4472;SDS011;2249;42.626;23.320;2024-01-25T06:44:03;11.20;;;3.80;;
4472;SDS011;2249;42.626;23.320;2024-01-25T06:46:30;5.40;;;2.33;;
4472;SDS011;2249;42.626;23.320;2024-01-25T06:48:56;7.37;;;2.80;;
4472;SDS011;2249;42.626;23.320;2024-01-25T06:51:23;4.60;;;2.43;;
4472;SDS011;2249;42.626;23.320;2024-01-25T06:53:49;7.00;;;2.80;;
4472;SDS011;2249;42.626;23.320;2024-01-25T06:56:17;12.50;;;3.03;;
4472;SDS011;2249;42.626;23.320;2024-01-25T06:58:43;12.97;;;7.07;;
4472;SDS011;2249;42.626;23.320;2024-01-25T07:01:10;6.10;;;2.70;;
4472;SDS011;2249;42.626;23.320;2024-01-25T07:03:36;13.83;;;3.60;;
4472;SDS011;2249;42.626;23.320;2024-01-25T07:06:03;4.93;;;2.70;;
4472;SDS011;2249;42.626;23.320;2024-01-25T07:08:30;10.03;;;5.00;;
4472;SDS011;2249;42.626;23.320;2024-01-25T07:10:57;18.40;;;9.23;;
4472;SDS011;2249;42.626;23.320;2024-01-25T07:13:27;32.50;;;23.53;;
4472;SDS011;2249;42.626;23.320;2024-01-25T07:15:54;68.97;;;41.33;;
4472;SDS011;2249;42.626;23.320;2024-01-25T07:18:20;34.50;;;14.43;;
4472;SDS011;2249;42.626;23.320;2024-01-25T07:20:48;16.50;;;6.93;;
4472;SDS011;2249;42.626;23.320;2024-01-25T07:23:14;13.23;;;6.10;;
4472;SDS011;2249;42.626;23.320;2024-01-25T07:25:41;13.63;;;4.83;;
4472;SDS011;2249;42.626;23.320;2024-01-25T07:28:07;12.87;;;6.10;;
4472;SDS011;2249;42.626;23.320;2024-01-25T07:30:35;20.20;;;9.57;;
4472;SDS011;2249;42.626;23.320;2024-01-25T07:33:02;21.03;;;8.57;;
4472;SDS011;2249;42.626;23.320;2024-01-25T07:35:28;6.77;;;3.03;;
4472;SDS011;2249;42.626;23.320;2024-01-25T07:37:55;23.50;;;11.67;;
4472;SDS011;2249;42.626;23.320;2024-01-25T07:40:21;16.43;;;5.90;;
4472;SDS011;2249;42.626;23.320;2024-01-25T07:42:47;8.63;;;4.10;;
4472;SDS011;2249;42.626;23.320;2024-01-25T07:45:14;8.23;;;2.73;;
4472;SDS011;2249;42.626;23.320;2024-01-25T07:47:42;8.80;;;4.30;;
4472;SDS011;2249;42.626;23.320;2024-01-25T07:50:09;11.47;;;3.77;;
4472;SDS011;2249;42.626;23.320;2024-01-25T07:52:36;8.50;;;2.67;;
4472;SDS011;2249;42.626;23.320;2024-01-25T07:55:02;11.20;;;4.37;;
4472;SDS011;2249;42.626;23.320;2024-01-25T07:57:29;12.63;;;3.80;;
4472;SDS011;2249;42.626;23.320;2024-01-25T07:59:55;11.47;;;5.10;;
4472;SDS011;2249;42.626;23.320;2024-01-25T08:02:22;11.90;;;5.50;;
4472;SDS011;2249;42.626;23.320;2024-01-25T08:04:50;8.90;;;3.50;;
4472;SDS011;2249;42.626;23.320;2024-01-25T08:07:16;9.90;;;3.30;;
4472;SDS011;2249;42.626;23.320;2024-01-25T08:09:43;10.70;;;4.33;;
4472;SDS011;2249;42.626;23.320;2024-01-25T08:12:09;13.53;;;7.13;;
4472;SDS011;2249;42.626;23.320;2024-01-25T08:14:36;7.10;;;3.30;;
4472;SDS011;2249;42.626;23.320;2024-01-25T08:17:03;8.80;;;3.67;;
4472;SDS011;2249;42.626;23.320;2024-01-25T08:19:29;4.90;;;2.90;;
4472;SDS011;2249;42.626;23.320;2024-01-25T08:21:57;10.00;;;4.77;;
4472;SDS011;2249;42.626;23.320;2024-01-25T08:24:24;7.63;;;3.30;;
4472;SDS011;2249;42.626;23.320;2024-01-25T08:26:50;4.30;;;2.50;;
4472;SDS011;2249;42.626;23.320;2024-01-25T08:29:17;6.57;;;2.53;;
4472;SDS011;2249;42.626;23.320;2024-01-25T08:31:43;6.90;;;2.80;;
4472;SDS011;2249;42.626;23.320;2024-01-25T08:34:11;13.30;;;3.60;;
4472;SDS011;2249;42.626;23.320;2024-01-25T08:36:37;15.27;;;3.33;;
4472;SDS011;2249;42.626;23.320;2024-01-25T08:39:05;9.83;;;2.83;;
4472;SDS011;2249;42.626;23.320;2024-01-25T08:41:33;6.20;;;2.53;;
4472;SDS011;2249;42.626;23.320;2024-01-25T08:44:00;5.80;;;3.30;;
4472;SDS011;2249;42.626;23.320;2024-01-25T08:46:27;14.73;;;6.63;;
4472;SDS011;2249;42.626;23.320;2024-01-25T08:48:53;14.40;;;5.90;;
4472;SDS011;2249;42.626;23.320;2024-01-25T08:51:20;12.87;;;3.60;;
4472;SDS011;2249;42.626;23.320;2024-01-25T08:53:46;9.90;;;4.53;;
4472;SDS011;2249;42.626;23.320;2024-01-25T08:56:17;10.00;;;3.53;;
4472;SDS011;2249;42.626;23.320;2024-01-25T08:58:43;14.40;;;7.70;;
4472;SDS011;2249;42.626;23.320;2024-01-25T09:01:10;10.80;;;4.37;;
4472;SDS011;2249;42.626;23.320;2024-01-25T09:03:37;10.80;;;3.90;;
4472;SDS011;2249;42.626;23.320;2024-01-25T09:06:04;8.07;;;4.00;;
4472;SDS011;2249;42.626;23.320;2024-01-25T09:08:31;13.90;;;3.53;;
4472;SDS011;2249;42.626;23.320;2024-01-25T09:10:57;8.67;;;3.87;;
4472;SDS011;2249;42.626;23.320;2024-01-25T09:13:25;9.60;;;3.13;;
4472;SDS011;2249;42.626;23.320;2024-01-25T09:15:52;13.60;;;4.77;;
4472;SDS011;2249;42.626;23.320;2024-01-25T09:18:18;9.43;;;3.10;;
4472;SDS011;2249;42.626;23.320;2024-01-25T09:20:45;7.83;;;3.07;;
4472;SDS011;2249;42.626;23.320;2024-01-25T09:23:13;9.17;;;4.17;;
4472;SDS011;2249;42.626;23.320;2024-01-25T09:25:40;18.60;;;6.33;;
4472;SDS011;2249;42.626;23.320;2024-01-25T09:28:06;5.33;;;2.97;;
4472;SDS011;2249;42.626;23.320;2024-01-25T09:30:34;7.37;;;3.00;;
4472;SDS011;2249;42.626;23.320;2024-01-25T09:33:01;11.60;;;3.33;;
4472;SDS011;2249;42.626;23.320;2024-01-25T09:35:27;8.40;;;2.90;;
4472;SDS011;2249;42.626;23.320;2024-01-25T09:37:54;8.20;;;3.60;;
4472;SDS011;2249;42.626;23.320;2024-01-25T09:40:20;9.43;;;3.47;;
4472;SDS011;2249;42.626;23.320;2024-01-25T09:42:47;9.47;;;3.20;;
4472;SDS011;2249;42.626;23.320;2024-01-25T09:45:15;8.93;;;4.20;;
4472;SDS011;2249;42.626;23.320;2024-01-25T09:47:44;6.10;;;2.47;;
4472;SDS011;2249;42.626;23.320;2024-01-25T09:50:13;10.33;;;4.27;;
4472;SDS011;2249;42.626;23.320;2024-01-25T09:52:39;8.03;;;3.40;;
4472;SDS011;2249;42.626;23.320;2024-01-25T09:55:10;14.10;;;3.87;;
4472;SDS011;2249;42.626;23.320;2024-01-25T09:57:39;13.40;;;4.50;;
4472;SDS011;2249;42.626;23.320;2024-01-25T10:00:07;15.10;;;4.93;;
4472;SDS011;2249;42.626;23.320;2024-01-25T10:02:36;7.47;;;3.70;;
4472;SDS011;2249;42.626;23.320;2024-01-25T10:05:05;6.60;;;3.70;;
4472;SDS011;2249;42.626;23.320;2024-01-25T10:07:38;13.20;;;5.97;;
4472;SDS011;2249;42.626;23.320;2024-01-25T10:10:04;13.10;;;6.33;;
4472;SDS011;2249;42.626;23.320;2024-01-25T10:12:31;8.13;;;3.50;;
4472;SDS011;2249;42.626;23.320;2024-01-25T10:14:58;9.37;;;3.33;;
4472;SDS011;2249;42.626;23.320;2024-01-25T10:17:25;6.07;;;3.67;;
4472;SDS011;2249;42.626;23.320;2024-01-25T10:19:51;9.40;;;3.57;;
4472;SDS011;2249;42.626;23.320;2024-01-25T10:22:19;14.03;;;6.90;;
4472;SDS011;2249;42.626;23.320;2024-01-25T10:24:46;12.23;;;4.70;;
4472;SDS011;2249;42.626;23.320;2024-01-25T10:27:15;12.13;;;4.00;;
4472;SDS011;2249;42.626;23.320;2024-01-25T10:29:41;8.33;;;4.20;;
4472;SDS011;2249;42.626;23.320;2024-01-25T10:32:08;7.23;;;3.70;;
4472;SDS011;2249;42.626;23.320;2024-01-25T10:34:35;7.37;;;3.67;;
4472;SDS011;2249;42.626;23.320;2024-01-25T10:37:02;7.13;;;3.13;;
4472;SDS011;2249;42.626;23.320;2024-01-25T10:39:30;7.47;;;3.47;;
4472;SDS011;2249;42.626;23.320;2024-01-25T10:41:57;9.80;;;4.17;;
4472;SDS011;2249;42.626;23.320;2024-01-25T10:44:24;9.17;;;4.43;;
4472;SDS011;2249;42.626;23.320;2024-01-25T10:46:51;8.10;;;3.50;;
4472;SDS011;2249;42.626;23.320;2024-01-25T10:49:19;10.47;;;3.70;;
4472;SDS011;2249;42.626;23.320;2024-01-25T10:51:46;10.77;;;4.67;;
4472;SDS011;2249;42.626;23.320;2024-01-25T10:54:13;9.47;;;4.10;;
4472;SDS011;2249;42.626;23.320;2024-01-25T10:56:42;9.13;;;4.10;;
4472;SDS011;2249;42.626;23.320;2024-01-25T10:59:08;9.90;;;3.70;;
4472;SDS011;2249;42.626;23.320;2024-01-25T11:01:36;11.83;;;4.60;;
4472;SDS011;2249;42.626;23.320;2024-01-25T11:04:03;14.70;;;5.10;;
4472;SDS011;2249;42.626;23.320;2024-01-25T11:06:37;12.60;;;6.10;;
4472;SDS011;2249;42.626;23.320;2024-01-25T11:09:04;26.50;;;10.40;;
4472;SDS011;2249;42.626;23.320;2024-01-25T11:11:31;21.73;;;10.30;;
4472;SDS011;2249;42.626;23.320;2024-01-25T11:13:59;14.63;;;4.70;;
4472;SDS011;2249;42.626;23.320;2024-01-25T11:16:28;15.20;;;3.60;;
4472;SDS011;2249;42.626;23.320;2024-01-25T11:18:55;9.73;;;3.83;;
4472;SDS011;2249;42.626;23.320;2024-01-25T11:21:27;6.27;;;3.30;;
4472;SDS011;2249;42.626;23.320;2024-01-25T11:24:01;17.13;;;4.30;;
4472;SDS011;2249;42.626;23.320;2024-01-25T11:26:28;13.47;;;4.43;;
4472;SDS011;2249;42.626;23.320;2024-01-25T11:28:55;9.50;;;4.00;;
4472;SDS011;2249;42.626;23.320;2024-01-25T11:31:23;13.60;;;5.70;;
4472;SDS011;2249;42.626;23.320;2024-01-25T11:33:49;11.00;;;5.90;;
4472;SDS011;2249;42.626;23.320;2024-01-25T11:36:15;16.47;;;4.33;;
4472;SDS011;2249;42.626;23.320;2024-01-25T11:38:42;8.20;;;3.57;;
4472;SDS011;2249;42.626;23.320;2024-01-25T11:41:08;9.43;;;2.67;;
4472;SDS011;2249;42.626;23.320;2024-01-25T11:43:35;7.87;;;3.80;;
4472;SDS011;2249;42.626;23.320;2024-01-25T11:46:01;11.47;;;3.43;;
4472;SDS011;2249;42.626;23.320;2024-01-25T11:48:29;8.70;;;3.53;;
4472;SDS011;2249;42.626;23.320;2024-01-25T11:50:56;7.30;;;3.60;;
4472;SDS011;2249;42.626;23.320;2024-01-25T11:53:24;12.83;;;3.77;;
4472;SDS011;2249;42.626;23.320;2024-01-25T11:55:50;7.90;;;3.63;;
4472;SDS011;2249;42.626;23.320;2024-01-25T11:58:17;7.47;;;2.80;;
4472;SDS011;2249;42.626;23.320;2024-01-25T12:00:44;8.10;;;3.77;;
4472;SDS011;2249;42.626;23.320;2024-01-25T12:03:10;12.20;;;3.77;;
4472;SDS011;2249;42.626;23.320;2024-01-25T12:05:38;9.80;;;3.37;;
4472;SDS011;2249;42.626;23.320;2024-01-25T12:08:08;6.60;;;3.10;;
4472;SDS011;2249;42.626;23.320;2024-01-25T12:10:34;8.80;;;3.43;;
4472;SDS011;2249;42.626;23.320;2024-01-25T12:13:01;10.53;;;3.20;;
4472;SDS011;2249;42.626;23.320;2024-01-25T12:15:27;10.00;;;4.00;;
4472;SDS011;2249;42.626;23.320;2024-01-25T12:17:54;10.53;;;3.73;;
4472;SDS011;2249;42.626;23.320;2024-01-25T12:20:20;6.40;;;3.00;;
4472;SDS011;2249;42.626;23.320;2024-01-25T12:22:49;9.23;;;3.73;;
4472;SDS011;2249;42.626;23.320;2024-01-25T12:25:16;10.13;;;3.47;;
4472;SDS011;2249;42.626;23.320;2024-01-25T12:27:42;9.10;;;3.40;;
4472;SDS011;2249;42.626;23.320;2024-01-25T12:30:11;10.50;;;4.10;;
4472;SDS011;2249;42.626;23.320;2024-01-25T12:32:38;9.47;;;3.57;;
4472;SDS011;2249;42.626;23.320;2024-01-25T12:35:05;7.97;;;3.37;;
4472;SDS011;2249;42.626;23.320;2024-01-25T12:37:31;9.77;;;2.83;;
4472;SDS011;2249;42.626;23.320;2024-01-25T12:39:59;9.03;;;3.13;;
4472;SDS011;2249;42.626;23.320;2024-01-25T12:42:26;13.23;;;3.60;;
4472;SDS011;2249;42.626;23.320;2024-01-25T12:44:53;11.20;;;3.27;;
4472;SDS011;2249;42.626;23.320;2024-01-25T12:47:19;6.57;;;2.80;;
4472;SDS011;2249;42.626;23.320;2024-01-25T12:49:46;5.70;;;2.97;;
4472;SDS011;2249;42.626;23.320;2024-01-25T12:52:13;8.27;;;2.70;;
4472;SDS011;2249;42.626;23.320;2024-01-25T12:54:39;10.77;;;3.43;;
4472;SDS011;2249;42.626;23.320;2024-01-25T12:57:07;11.00;;;3.70;;
4472;SDS011;2249;42.626;23.320;2024-01-25T12:59:34;8.93;;;3.17;;
4472;SDS011;2249;42.626;23.320;2024-01-25T13:02:01;5.27;;;2.90;;
4472;SDS011;2249;42.626;23.320;2024-01-25T13:04:28;6.97;;;2.63;;
4472;SDS011;2249;42.626;23.320;2024-01-25T13:06:54;7.20;;;2.50;;
4472;SDS011;2249;42.626;23.320;2024-01-25T13:09:21;7.40;;;2.73;;
4472;SDS011;2249;42.626;23.320;2024-01-25T13:11:48;11.50;;;3.37;;
4472;SDS011;2249;42.626;23.320;2024-01-25T13:14:16;8.93;;;2.60;;
4472;SDS011;2249;42.626;23.320;2024-01-25T13:16:42;7.33;;;2.83;;
4472;SDS011;2249;42.626;23.320;2024-01-25T13:19:09;6.47;;;2.97;;
4472;SDS011;2249;42.626;23.320;2024-01-25T13:21:36;7.60;;;2.80;;
4472;SDS011;2249;42.626;23.320;2024-01-25T13:24:03;9.13;;;2.97;;
4472;SDS011;2249;42.626;23.320;2024-01-25T13:26:30;6.63;;;3.10;;
4472;SDS011;2249;42.626;23.320;2024-01-25T13:28:56;5.50;;;2.43;;
4472;SDS011;2249;42.626;23.320;2024-01-25T13:31:24;6.87;;;2.70;;
4472;SDS011;2249;42.626;23.320;2024-01-25T13:33:50;15.17;;;3.70;;
4472;SDS011;2249;42.626;23.320;2024-01-25T13:36:17;13.07;;;3.50;;
4472;SDS011;2249;42.626;23.320;2024-01-25T13:38:44;10.33;;;3.63;;
4472;SDS011;2249;42.626;23.320;2024-01-25T13:41:10;10.40;;;3.30;;
4472;SDS011;2249;42.626;23.320;2024-01-25T13:43:36;11.50;;;2.50;;
4472;SDS011;2249;42.626;23.320;2024-01-25T13:46:03;11.00;;;3.50;;
4472;SDS011;2249;42.626;23.320;2024-01-25T13:48:31;10.63;;;4.80;;
4472;SDS011;2249;42.626;23.320;2024-01-25T13:50:57;8.40;;;3.20;;
4472;SDS011;2249;42.626;23.320;2024-01-25T13:53:24;8.90;;;3.50;;
4472;SDS011;2249;42.626;23.320;2024-01-25T13:55:50;15.57;;;3.67;;
4472;SDS011;2249;42.626;23.320;2024-01-25T13:58:17;10.37;;;3.63;;
4472;SDS011;2249;42.626;23.320;2024-01-25T14:00:43;8.30;;;4.03;;
4472;SDS011;2249;42.626;23.320;2024-01-25T14:03:10;10.43;;;3.93;;
4472;SDS011;2249;42.626;23.320;2024-01-25T14:05:38;6.10;;;3.37;;
4472;SDS011;2249;42.626;23.320;2024-01-25T14:08:04;16.17;;;3.50;;
4472;SDS011;2249;42.626;23.320;2024-01-25T14:10:31;15.83;;;4.43;;
4472;SDS011;2249;42.626;23.320;2024-01-25T14:12:59;16.27;;;7.63;;
4472;SDS011;2249;42.626;23.320;2024-01-25T14:15:25;11.30;;;5.90;;
4472;SDS011;2249;42.626;23.320;2024-01-25T14:17:52;11.20;;;3.70;;
4472;SDS011;2249;42.626;23.320;2024-01-25T14:20:18;11.50;;;5.23;;
4472;SDS011;2249;42.626;23.320;2024-01-25T14:22:46;12.67;;;5.70;;
4472;SDS011;2249;42.626;23.320;2024-01-25T14:25:13;11.07;;;4.20;;
4472;SDS011;2249;42.626;23.320;2024-01-25T14:27:39;8.47;;;4.20;;
4472;SDS011;2249;42.626;23.320;2024-01-25T14:30:06;9.20;;;4.30;;
4472;SDS011;2249;42.626;23.320;2024-01-25T14:32:33;10.43;;;4.07;;
4472;SDS011;2249;42.626;23.320;2024-01-25T14:34:59;9.97;;;3.47;;
4472;SDS011;2249;42.626;23.320;2024-01-25T14:37:26;11.60;;;4.03;;
4472;SDS011;2249;42.626;23.320;2024-01-25T14:39:53;7.23;;;2.73;;
4472;SDS011;2249;42.626;23.320;2024-01-25T14:42:20;16.97;;;5.73;;
4472;SDS011;2249;42.626;23.320;2024-01-25T14:44:46;9.20;;;3.70;;
4472;SDS011;2249;42.626;23.320;2024-01-25T14:47:13;7.90;;;3.60;;
4472;SDS011;2249;42.626;23.320;2024-01-25T14:49:45;15.27;;;4.67;;
4472;SDS011;2249;42.626;23.320;2024-01-25T14:52:11;9.10;;;3.60;;